sensor_id;sensor_type;location;lat;lon;timestamp;pressure;altitude;pressure_sealevel;temperature;humidity
28306;BME280;7516;43.570;1.448;2023-08-21T00:02:05;100064.00;;;28.92;57.58
28306;BME280;7516;43.570;1.448;2023-08-21T00:04:33;100069.41;;;28.87;57.83
28306;BME280;7516;43.570;1.448;2023-08-21T00:07:00;100069.75;;;28.80;57.91
28306;BME280;7516;43.570;1.448;2023-08-21T00:09:28;100074.09;;;28.76;57.88
28306;BME280;7516;43.570;1.448;2023-08-21T00:11:55;100072.22;;;28.71;58.49
28306;BME280;7516;43.570;1.448;2023-08-21T00:14:24;100074.72;;;28.63;58.59
28306;BME280;7516;43.570;1.448;2023-08-21T00:16:53;100076.66;;;28.57;58.83
28306;BME280;7516;43.570;1.448;2023-08-21T00:19:20;100083.16;;;28.51;59.06
28306;BME280;7516;43.570;1.448;2023-08-21T00:21:48;100069.72;;;28.46;58.78
28306;BME280;7516;43.570;1.448;2023-08-21T00:24:15;100074.66;;;28.39;59.36
28306;BME280;7516;43.570;1.448;2023-08-21T00:26:43;100078.44;;;28.33;59.97
28306;BME280;7516;43.570;1.448;2023-08-21T00:29:10;100076.88;;;28.27;59.68
28306;BME280;7516;43.570;1.448;2023-08-21T00:31:38;100078.81;;;28.21;60.15
28306;BME280;7516;43.570;1.448;2023-08-21T00:34:07;100077.75;;;28.17;60.44
28306;BME280;7516;43.570;1.448;2023-08-21T00:36:34;100076.66;;;28.13;60.70
28306;BME280;7516;43.570;1.448;2023-08-21T00:39:02;100084.78;;;28.08;61.11
28306;BME280;7516;43.570;1.448;2023-08-21T00:41:29;100088.31;;;28.03;61.11
28306;BME280;7516;43.570;1.448;2023-08-21T00:43:57;100094.03;;;27.97;61.46
28306;BME280;7516;43.570;1.448;2023-08-21T00:46:24;100080.81;;;27.90;61.79
28306;BME280;7516;43.570;1.448;2023-08-21T00:48:52;100087.06;;;27.86;61.93
28306;BME280;7516;43.570;1.448;2023-08-21T00:51:21;100096.00;;;27.76;66.14
28306;BME280;7516;43.570;1.448;2023-08-21T00:53:49;100088.53;;;27.43;68.42
28306;BME280;7516;43.570;1.448;2023-08-21T00:56:16;100093.38;;;27.35;69.66
28306;BME280;7516;43.570;1.448;2023-08-21T00:58:44;100089.38;;;27.33;69.11
28306;BME280;7516;43.570;1.448;2023-08-21T01:01:13;100086.16;;;27.26;69.50
28306;BME280;7516;43.570;1.448;2023-08-21T01:03:43;100080.78;;;27.21;69.66
28306;BME280;7516;43.570;1.448;2023-08-21T01:06:10;100082.41;;;27.17;70.36
28306;BME280;7516;43.570;1.448;2023-08-21T01:08:47;100087.53;;;27.08;70.81
28306;BME280;7516;43.570;1.448;2023-08-21T01:11:21;100080.00;;;27.00;71.15
28306;BME280;7516;43.570;1.448;2023-08-21T01:13:55;100081.34;;;26.92;72.14
28306;BME280;7516;43.570;1.448;2023-08-21T01:16:27;100083.50;;;26.95;71.66
28306;BME280;7516;43.570;1.448;2023-08-21T01:18:55;100078.91;;;26.76;72.31
28306;BME280;7516;43.570;1.448;2023-08-21T01:21:25;100078.38;;;26.64;73.02
28306;BME280;7516;43.570;1.448;2023-08-21T01:23:55;100081.31;;;26.67;72.67
28306;BME280;7516;43.570;1.448;2023-08-21T01:26:22;100085.88;;;26.67;72.81
28306;BME280;7516;43.570;1.448;2023-08-21T01:28:50;100080.78;;;26.50;72.80
28306;BME280;7516;43.570;1.448;2023-08-21T01:31:24;100077.28;;;26.44;72.58
28306;BME280;7516;43.570;1.448;2023-08-21T01:33:55;100081.56;;;26.35;72.85
28306;BME280;7516;43.570;1.448;2023-08-21T01:36:25;100081.84;;;26.29;73.42
28306;BME280;7516;43.570;1.448;2023-08-21T01:38:55;100087.69;;;26.15;73.15
28306;BME280;7516;43.570;1.448;2023-08-21T01:41:24;100091.44;;;26.09;73.33
28306;BME280;7516;43.570;1.448;2023-08-21T01:43:51;100093.03;;;26.05;73.16
28306;BME280;7516;43.570;1.448;2023-08-21T01:46:19;100095.16;;;25.98;73.40
28306;BME280;7516;43.570;1.448;2023-08-21T01:48:47;100089.22;;;25.91;73.22
28306;BME280;7516;43.570;1.448;2023-08-21T01:51:14;100097.84;;;25.93;73.37
28306;BME280;7516;43.570;1.448;2023-08-21T01:53:42;100085.44;;;25.82;74.00
28306;BME280;7516;43.570;1.448;2023-08-21T01:56:11;100088.88;;;25.77;74.39
28306;BME280;7516;43.570;1.448;2023-08-21T01:58:38;100088.88;;;25.72;74.24
28306;BME280;7516;43.570;1.448;2023-08-21T02:01:06;100096.16;;;25.77;74.53
28306;BME280;7516;43.570;1.448;2023-08-21T02:03:33;100102.28;;;25.67;74.98
28306;BME280;7516;43.570;1.448;2023-08-21T02:06:02;100103.63;;;25.65;75.80
28306;BME280;7516;43.570;1.448;2023-08-21T02:08:32;100100.63;;;25.61;75.67
28306;BME280;7516;43.570;1.448;2023-08-21T02:11:00;100106.50;;;25.58;76.60
28306;BME280;7516;43.570;1.448;2023-08-21T02:13:29;100099.22;;;25.48;76.62
28306;BME280;7516;43.570;1.448;2023-08-21T02:15:56;100099.97;;;25.44;76.73
28306;BME280;7516;43.570;1.448;2023-08-21T02:18:24;100107.47;;;25.42;76.53
28306;BME280;7516;43.570;1.448;2023-08-21T02:20:51;100106.59;;;25.26;77.23
28306;BME280;7516;43.570;1.448;2023-08-21T02:23:19;100098.47;;;25.16;77.53
28306;BME280;7516;43.570;1.448;2023-08-21T02:25:46;100103.81;;;25.16;77.19
28306;BME280;7516;43.570;1.448;2023-08-21T02:28:15;100100.88;;;25.18;77.33
28306;BME280;7516;43.570;1.448;2023-08-21T02:30:44;100109.97;;;25.11;77.62
28306;BME280;7516;43.570;1.448;2023-08-21T02:33:12;100102.44;;;25.08;77.96
28306;BME280;7516;43.570;1.448;2023-08-21T02:35:40;100107.22;;;25.01;78.40
28306;BME280;7516;43.570;1.448;2023-08-21T02:38:07;100109.06;;;24.96;78.74
28306;BME280;7516;43.570;1.448;2023-08-21T02:40:35;100106.25;;;24.86;79.34
28306;BME280;7516;43.570;1.448;2023-08-21T02:43:03;100104.41;;;24.86;79.56
28306;BME280;7516;43.570;1.448;2023-08-21T02:45:31;100100.41;;;24.89;79.81
28306;BME280;7516;43.570;1.448;2023-08-21T02:48:00;100111.13;;;24.89;79.59
28306;BME280;7516;43.570;1.448;2023-08-21T02:50:27;100109.75;;;24.86;80.08
28306;BME280;7516;43.570;1.448;2023-08-21T02:52:55;100119.09;;;24.79;80.44
28306;BME280;7516;43.570;1.448;2023-08-21T02:55:22;100109.66;;;24.76;80.55
28306;BME280;7516;43.570;1.448;2023-08-21T02:57:50;100114.44;;;24.69;80.74
28306;BME280;7516;43.570;1.448;2023-08-21T03:00:17;100116.06;;;24.70;81.33
28306;BME280;7516;43.570;1.448;2023-08-21T03:02:45;100114.94;;;24.66;81.16
28306;BME280;7516;43.570;1.448;2023-08-21T03:05:14;100116.81;;;24.65;80.71
28306;BME280;7516;43.570;1.448;2023-08-21T03:07:41;100118.91;;;24.58;81.63
28306;BME280;7516;43.570;1.448;2023-08-21T03:10:09;100110.81;;;24.53;81.32
28306;BME280;7516;43.570;1.448;2023-08-21T03:12:37;100117.16;;;24.47;82.12
28306;BME280;7516;43.570;1.448;2023-08-21T03:15:05;100117.38;;;24.41;82.55
28306;BME280;7516;43.570;1.448;2023-08-21T03:17:33;100115.47;;;24.36;83.14
28306;BME280;7516;43.570;1.448;2023-08-21T03:20:00;100119.22;;;24.35;83.16
28306;BME280;7516;43.570;1.448;2023-08-21T03:22:32;100118.06;;;24.31;82.95
28306;BME280;7516;43.570;1.448;2023-08-21T03:24:59;100117.38;;;24.41;82.44
28306;BME280;7516;43.570;1.448;2023-08-21T03:27:27;100120.25;;;24.34;83.37
28306;BME280;7516;43.570;1.448;2023-08-21T03:29:54;100111.41;;;24.33;83.42
28306;BME280;7516;43.570;1.448;2023-08-21T03:32:21;100123.88;;;24.23;83.37
28306;BME280;7516;43.570;1.448;2023-08-21T03:34:49;100115.28;;;24.21;83.72
28306;BME280;7516;43.570;1.448;2023-08-21T03:37:16;100114.69;;;24.19;83.73
28306;BME280;7516;43.570;1.448;2023-08-21T03:39:45;100125.41;;;24.19;84.03
28306;BME280;7516;43.570;1.448;2023-08-21T03:42:13;100119.75;;;24.15;83.78
28306;BME280;7516;43.570;1.448;2023-08-21T03:44:40;100122.69;;;24.14;83.85
28306;BME280;7516;43.570;1.448;2023-08-21T03:47:08;100115.94;;;24.11;84.38
28306;BME280;7516;43.570;1.448;2023-08-21T03:49:35;100118.00;;;24.04;84.72
28306;BME280;7516;43.570;1.448;2023-08-21T03:52:03;100117.72;;;24.00;84.93
28306;BME280;7516;43.570;1.448;2023-08-21T03:54:31;100114.09;;;23.90;85.60
28306;BME280;7516;43.570;1.448;2023-08-21T03:57:00;100114.84;;;23.85;86.35
28306;BME280;7516;43.570;1.448;2023-08-21T03:59:27;100120.19;;;23.85;86.84
28306;BME280;7516;43.570;1.448;2023-08-21T04:01:55;100122.34;;;23.83;86.92
28306;BME280;7516;43.570;1.448;2023-08-21T04:04:22;100120.97;;;23.81;87.07
28306;BME280;7516;43.570;1.448;2023-08-21T04:06:50;100120.38;;;23.79;87.46
28306;BME280;7516;43.570;1.448;2023-08-21T04:09:17;100121.38;;;23.73;88.24
28306;BME280;7516;43.570;1.448;2023-08-21T04:11:45;100118.97;;;23.71;88.01
28306;BME280;7516;43.570;1.448;2023-08-21T04:14:14;100123.81;;;23.74;88.07
28306;BME280;7516;43.570;1.448;2023-08-21T04:16:41;100134.94;;;23.66;88.18
28306;BME280;7516;43.570;1.448;2023-08-21T04:19:08;100128.59;;;23.72;88.18
28306;BME280;7516;43.570;1.448;2023-08-21T04:21:36;100134.22;;;23.71;87.56
28306;BME280;7516;43.570;1.448;2023-08-21T04:24:03;100136.13;;;23.75;88.00
28306;BME280;7516;43.570;1.448;2023-08-21T04:26:31;100133.34;;;23.65;88.45
28306;BME280;7516;43.570;1.448;2023-08-21T04:28:58;100138.25;;;23.73;88.36
28306;BME280;7516;43.570;1.448;2023-08-21T04:31:27;100141.38;;;23.65;88.59
28306;BME280;7516;43.570;1.448;2023-08-21T04:33:55;100144.84;;;23.66;88.30
28306;BME280;7516;43.570;1.448;2023-08-21T04:36:22;100140.72;;;23.58;88.60
28306;BME280;7516;43.570;1.448;2023-08-21T04:38:50;100146.25;;;23.51;89.59
28306;BME280;7516;43.570;1.448;2023-08-21T04:41:17;100158.81;;;23.51;89.53
28306;BME280;7516;43.570;1.448;2023-08-21T04:43:44;100156.38;;;23.49;89.65
28306;BME280;7516;43.570;1.448;2023-08-21T04:46:12;100151.66;;;23.40;90.47
28306;BME280;7516;43.570;1.448;2023-08-21T04:48:41;100158.81;;;23.51;89.76
28306;BME280;7516;43.570;1.448;2023-08-21T04:51:08;100153.38;;;23.46;89.82
28306;BME280;7516;43.570;1.448;2023-08-21T04:53:36;100158.91;;;23.39;90.58
28306;BME280;7516;43.570;1.448;2023-08-21T04:56:04;100161.16;;;23.47;90.93
28306;BME280;7516;43.570;1.448;2023-08-21T04:58:31;100165.69;;;23.47;90.70
28306;BME280;7516;43.570;1.448;2023-08-21T05:00:59;100161.63;;;23.61;89.95
28306;BME280;7516;43.570;1.448;2023-08-21T05:03:27;100160.91;;;23.66;89.31
28306;BME280;7516;43.570;1.448;2023-08-21T05:05:56;100166.41;;;23.59;88.86
28306;BME280;7516;43.570;1.448;2023-08-21T05:08:24;100175.50;;;23.41;89.78
28306;BME280;7516;43.570;1.448;2023-08-21T05:10:55;100179.78;;;23.42;89.94
28306;BME280;7516;43.570;1.448;2023-08-21T05:13:23;100182.81;;;23.46;90.85
28306;BME280;7516;43.570;1.448;2023-08-21T05:15:54;100180.03;;;23.41;90.76
28306;BME280;7516;43.570;1.448;2023-08-21T05:18:23;100182.88;;;23.34;90.72
28306;BME280;7516;43.570;1.448;2023-08-21T05:20:54;100191.97;;;23.33;91.26
28306;BME280;7516;43.570;1.448;2023-08-21T05:23:23;100195.38;;;23.29;91.47
28306;BME280;7516;43.570;1.448;2023-08-21T05:25:50;100198.63;;;23.31;91.06
28306;BME280;7516;43.570;1.448;2023-08-21T05:28:18;100198.88;;;23.29;91.71
28306;BME280;7516;43.570;1.448;2023-08-21T05:30:47;100200.00;;;23.33;91.75
28306;BME280;7516;43.570;1.448;2023-08-21T05:33:15;100211.03;;;23.37;90.51
28306;BME280;7516;43.570;1.448;2023-08-21T05:35:42;100202.50;;;23.40;90.36
28306;BME280;7516;43.570;1.448;2023-08-21T05:38:10;100203.88;;;23.42;90.44
28306;BME280;7516;43.570;1.448;2023-08-21T05:40:40;100204.44;;;23.44;90.38
28306;BME280;7516;43.570;1.448;2023-08-21T05:43:09;100193.41;;;23.41;90.68
28306;BME280;7516;43.570;1.448;2023-08-21T05:45:36;100200.16;;;23.43;90.03
28306;BME280;7516;43.570;1.448;2023-08-21T05:48:04;100202.50;;;23.40;90.33
28306;BME280;7516;43.570;1.448;2023-08-21T05:50:32;100206.56;;;23.42;90.29
28306;BME280;7516;43.570;1.448;2023-08-21T05:52:59;100210.28;;;23.41;90.67
28306;BME280;7516;43.570;1.448;2023-08-21T05:55:27;100217.03;;;23.44;90.23
28306;BME280;7516;43.570;1.448;2023-08-21T05:57:56;100216.63;;;23.52;89.86
28306;BME280;7516;43.570;1.448;2023-08-21T06:00:24;100215.81;;;23.51;90.05
28306;BME280;7516;43.570;1.448;2023-08-21T06:02:51;100231.53;;;23.48;90.36
28306;BME280;7516;43.570;1.448;2023-08-21T06:05:19;100222.47;;;23.49;90.26
28306;BME280;7516;43.570;1.448;2023-08-21T06:07:46;100223.44;;;23.59;89.66
28306;BME280;7516;43.570;1.448;2023-08-21T06:10:14;100224.34;;;23.65;89.57
28306;BME280;7516;43.570;1.448;2023-08-21T06:12:42;100235.59;;;23.67;89.08
28306;BME280;7516;43.570;1.448;2023-08-21T06:15:11;100229.13;;;23.63;89.14
28306;BME280;7516;43.570;1.448;2023-08-21T06:17:39;100225.41;;;23.64;89.09
28306;BME280;7516;43.570;1.448;2023-08-21T06:20:08;100236.75;;;23.71;89.03
28306;BME280;7516;43.570;1.448;2023-08-21T06:22:36;100229.44;;;23.67;89.37
28306;BME280;7516;43.570;1.448;2023-08-21T06:25:04;100237.22;;;23.68;88.79
28306;BME280;7516;43.570;1.448;2023-08-21T06:27:32;100238.28;;;23.67;88.67
28306;BME280;7516;43.570;1.448;2023-08-21T06:30:00;100243.47;;;23.74;88.68
28306;BME280;7516;43.570;1.448;2023-08-21T06:32:28;100236.31;;;23.79;88.24
28306;BME280;7516;43.570;1.448;2023-08-21T06:34:56;100247.38;;;23.83;88.02
28306;BME280;7516;43.570;1.448;2023-08-21T06:37:23;100240.22;;;23.88;87.86
28306;BME280;7516;43.570;1.448;2023-08-21T06:39:51;100246.19;;;23.95;87.48
28306;BME280;7516;43.570;1.448;2023-08-21T06:42:18;100246.28;;;24.00;86.92
28306;BME280;7516;43.570;1.448;2023-08-21T06:44:46;100237.91;;;23.97;86.98
28306;BME280;7516;43.570;1.448;2023-08-21T06:47:13;100242.38;;;24.08;86.76
28306;BME280;7516;43.570;1.448;2023-08-21T06:49:42;100245.13;;;23.96;86.82
28306;BME280;7516;43.570;1.448;2023-08-21T06:52:10;100244.13;;;24.02;86.73
28306;BME280;7516;43.570;1.448;2023-08-21T06:54:37;100241.78;;;24.06;86.17
28306;BME280;7516;43.570;1.448;2023-08-21T06:57:05;100237.31;;;24.12;86.02
28306;BME280;7516;43.570;1.448;2023-08-21T06:59:32;100229.84;;;24.14;86.05
28306;BME280;7516;43.570;1.448;2023-08-21T07:02:02;100229.75;;;24.25;85.43
28306;BME280;7516;43.570;1.448;2023-08-21T07:04:29;100239.97;;;24.28;85.55
28306;BME280;7516;43.570;1.448;2023-08-21T07:06:58;100233.78;;;24.28;85.02
28306;BME280;7516;43.570;1.448;2023-08-21T07:09:26;100240.53;;;24.30;84.55
28306;BME280;7516;43.570;1.448;2023-08-21T07:11:53;100240.84;;;24.34;84.67
28306;BME280;7516;43.570;1.448;2023-08-21T07:14:21;100238.84;;;24.46;84.42
28306;BME280;7516;43.570;1.448;2023-08-21T07:16:48;100239.47;;;24.53;84.08
28306;BME280;7516;43.570;1.448;2023-08-21T07:19:17;100246.25;;;24.61;83.68
28306;BME280;7516;43.570;1.448;2023-08-21T07:21:44;100243.22;;;24.52;83.67
28306;BME280;7516;43.570;1.448;2023-08-21T07:24:13;100244.53;;;24.50;83.53
28306;BME280;7516;43.570;1.448;2023-08-21T07:26:41;100245.34;;;24.50;83.49
28306;BME280;7516;43.570;1.448;2023-08-21T07:29:08;100238.47;;;24.59;83.42
28306;BME280;7516;43.570;1.448;2023-08-21T07:31:36;100240.69;;;24.67;82.60
28306;BME280;7516;43.570;1.448;2023-08-21T07:34:03;100237.78;;;24.69;82.42
28306;BME280;7516;43.570;1.448;2023-08-21T07:36:32;100242.31;;;24.68;81.98
28306;BME280;7516;43.570;1.448;2023-08-21T07:39:00;100234.03;;;24.70;82.34
28306;BME280;7516;43.570;1.448;2023-08-21T07:41:28;100228.50;;;24.82;82.19
28306;BME280;7516;43.570;1.448;2023-08-21T07:43:56;100221.59;;;24.86;81.67
28306;BME280;7516;43.570;1.448;2023-08-21T07:46:23;100224.84;;;24.88;81.26
28306;BME280;7516;43.570;1.448;2023-08-21T07:48:52;100222.47;;;24.91;81.08
28306;BME280;7516;43.570;1.448;2023-08-21T07:51:19;100228.75;;;25.02;81.13
28306;BME280;7516;43.570;1.448;2023-08-21T07:53:47;100235.78;;;25.08;80.72
28306;BME280;7516;43.570;1.448;2023-08-21T07:56:14;100227.78;;;25.13;80.13
28306;BME280;7516;43.570;1.448;2023-08-21T07:58:43;100225.94;;;25.19;80.11
28306;BME280;7516;43.570;1.448;2023-08-21T08:01:10;100222.22;;;25.25;79.66
28306;BME280;7516;43.570;1.448;2023-08-21T08:03:38;100224.16;;;25.29;79.54
28306;BME280;7516;43.570;1.448;2023-08-21T08:06:05;100228.50;;;25.35;79.07
28306;BME280;7516;43.570;1.448;2023-08-21T08:08:33;100223.19;;;25.40;78.55
28306;BME280;7516;43.570;1.448;2023-08-21T08:11:04;100225.31;;;25.38;78.28
28306;BME280;7516;43.570;1.448;2023-08-21T08:13:32;100220.78;;;25.44;77.94
28306;BME280;7516;43.570;1.448;2023-08-21T08:16:01;100224.84;;;25.46;77.76
28306;BME280;7516;43.570;1.448;2023-08-21T08:18:28;100222.47;;;25.55;77.64
28306;BME280;7516;43.570;1.448;2023-08-21T08:20:56;100230.34;;;25.62;77.22
28306;BME280;7516;43.570;1.448;2023-08-21T08:23:23;100226.09;;;25.66;76.98
28306;BME280;7516;43.570;1.448;2023-08-21T08:25:51;100220.97;;;25.64;76.82
28306;BME280;7516;43.570;1.448;2023-08-21T08:28:19;100225.28;;;25.65;76.49
28306;BME280;7516;43.570;1.448;2023-08-21T08:30:46;100222.59;;;25.70;76.28
28306;BME280;7516;43.570;1.448;2023-08-21T08:33:15;100221.28;;;25.73;76.52
28306;BME280;7516;43.570;1.448;2023-08-21T08:35:43;100219.22;;;25.85;76.10
28306;BME280;7516;43.570;1.448;2023-08-21T08:38:10;100217.38;;;25.96;75.31
28306;BME280;7516;43.570;1.448;2023-08-21T08:40:42;100217.69;;;26.04;75.42
28306;BME280;7516;43.570;1.448;2023-08-21T08:43:11;100212.91;;;26.11;74.65
28306;BME280;7516;43.570;1.448;2023-08-21T08:45:39;100209.13;;;26.12;74.10
28306;BME280;7516;43.570;1.448;2023-08-21T08:48:08;100206.47;;;26.17;73.61
28306;BME280;7516;43.570;1.448;2023-08-21T08:50:38;100212.41;;;26.24;73.63
28306;BME280;7516;43.570;1.448;2023-08-21T08:53:07;100206.00;;;26.31;72.85
28306;BME280;7516;43.570;1.448;2023-08-21T08:55:35;100215.72;;;26.37;72.30
28306;BME280;7516;43.570;1.448;2023-08-21T08:58:03;100210.91;;;26.44;71.69
28306;BME280;7516;43.570;1.448;2023-08-21T09:00:31;100207.16;;;26.45;71.52
28306;BME280;7516;43.570;1.448;2023-08-21T09:02:59;100200.97;;;26.49;71.43
28306;BME280;7516;43.570;1.448;2023-08-21T09:05:26;100203.41;;;26.51;70.03
28306;BME280;7516;43.570;1.448;2023-08-21T09:08:10;100193.97;;;26.48;70.76
28306;BME280;7516;43.570;1.448;2023-08-21T09:10:38;100192.41;;;26.63;70.66
28306;BME280;7516;43.570;1.448;2023-08-21T09:13:13;100190.25;;;26.59;69.17
28306;BME280;7516;43.570;1.448;2023-08-21T09:15:42;100187.28;;;26.61;69.01
28306;BME280;7516;43.570;1.448;2023-08-21T09:18:10;100188.91;;;26.67;69.11
28306;BME280;7516;43.570;1.448;2023-08-21T09:20:38;100183.56;;;26.77;68.93
28306;BME280;7516;43.570;1.448;2023-08-21T09:23:08;100185.44;;;26.82;69.04
28306;BME280;7516;43.570;1.448;2023-08-21T09:25:40;100175.50;;;26.92;68.83
28306;BME280;7516;43.570;1.448;2023-08-21T09:28:09;100177.16;;;27.04;68.35
28306;BME280;7516;43.570;1.448;2023-08-21T09:30:47;100177.16;;;27.09;68.13
28306;BME280;7516;43.570;1.448;2023-08-21T09:33:17;100177.94;;;27.09;67.51
28306;BME280;7516;43.570;1.448;2023-08-21T09:35:45;100174.44;;;27.19;67.13
28306;BME280;7516;43.570;1.448;2023-08-21T09:38:14;100182.25;;;27.30;67.30
28306;BME280;7516;43.570;1.448;2023-08-21T09:40:44;100179.81;;;27.39;65.67
28306;BME280;7516;43.570;1.448;2023-08-21T09:43:17;100182.78;;;27.43;65.72
28306;BME280;7516;43.570;1.448;2023-08-21T09:45:46;100178.72;;;27.45;64.52
28306;BME280;7516;43.570;1.448;2023-08-21T09:48:14;100171.75;;;27.54;64.71
28306;BME280;7516;43.570;1.448;2023-08-21T09:50:42;100172.28;;;27.56;63.92
28306;BME280;7516;43.570;1.448;2023-08-21T09:53:10;100167.41;;;27.63;64.50
28306;BME280;7516;43.570;1.448;2023-08-21T09:55:39;100164.69;;;27.74;63.39
28306;BME280;7516;43.570;1.448;2023-08-21T09:58:07;100165.78;;;27.78;62.46
28306;BME280;7516;43.570;1.448;2023-08-21T10:00:37;100166.81;;;27.82;62.73
28306;BME280;7516;43.570;1.448;2023-08-21T10:03:07;100159.53;;;27.87;62.57
28306;BME280;7516;43.570;1.448;2023-08-21T10:05:37;100153.31;;;27.92;61.99
28306;BME280;7516;43.570;1.448;2023-08-21T10:08:07;100156.00;;;27.92;62.37
28306;BME280;7516;43.570;1.448;2023-08-21T10:10:36;100163.53;;;28.00;62.32
28306;BME280;7516;43.570;1.448;2023-08-21T10:13:06;100160.25;;;28.08;62.38
28306;BME280;7516;43.570;1.448;2023-08-21T10:15:35;100159.44;;;28.18;61.41
28306;BME280;7516;43.570;1.448;2023-08-21T10:18:19;100154.03;;;28.23;61.55
28306;BME280;7516;43.570;1.448;2023-08-21T10:20:47;100153.44;;;28.31;61.44
28306;BME280;7516;43.570;1.448;2023-08-21T10:23:25;100160.38;;;28.42;60.68
28306;BME280;7516;43.570;1.448;2023-08-21T10:25:56;100149.00;;;28.50;60.17
28306;BME280;7516;43.570;1.448;2023-08-21T10:28:25;100149.00;;;28.50;60.01
28306;BME280;7516;43.570;1.448;2023-08-21T10:30:52;100148.44;;;28.53;60.05
28306;BME280;7516;43.570;1.448;2023-08-21T10:33:45;100142.72;;;28.65;60.34
28306;BME280;7516;43.570;1.448;2023-08-21T10:36:13;100131.84;;;28.75;60.06
28306;BME280;7516;43.570;1.448;2023-08-21T10:38:58;100129.06;;;28.90;59.21
28306;BME280;7516;43.570;1.448;2023-08-21T10:41:27;100140.00;;;29.04;58.64
28306;BME280;7516;43.570;1.448;2023-08-21T10:43:56;100131.53;;;29.15;57.15
28306;BME280;7516;43.570;1.448;2023-08-21T10:46:23;100124.47;;;29.19;57.34
28306;BME280;7516;43.570;1.448;2023-08-21T10:48:51;100121.44;;;29.26;57.67
28306;BME280;7516;43.570;1.448;2023-08-21T10:51:18;100123.44;;;29.44;57.39
28306;BME280;7516;43.570;1.448;2023-08-21T10:53:46;100116.59;;;29.52;55.94
28306;BME280;7516;43.570;1.448;2023-08-21T10:56:13;100122.81;;;29.52;56.04
28306;BME280;7516;43.570;1.448;2023-08-21T10:58:42;100117.69;;;29.51;55.57
28306;BME280;7516;43.570;1.448;2023-08-21T11:01:13;100114.75;;;29.47;55.83
28306;BME280;7516;43.570;1.448;2023-08-21T11:03:46;100109.06;;;29.49;55.62
28306;BME280;7516;43.570;1.448;2023-08-21T11:06:13;100102.00;;;29.53;55.62
28306;BME280;7516;43.570;1.448;2023-08-21T11:08:41;100099.19;;;29.63;55.53
28306;BME280;7516;43.570;1.448;2023-08-21T11:11:11;100102.34;;;29.70;54.97
28306;BME280;7516;43.570;1.448;2023-08-21T11:13:38;100098.56;;;29.90;54.90
28306;BME280;7516;43.570;1.448;2023-08-21T11:16:06;100104.81;;;30.09;53.78
28306;BME280;7516;43.570;1.448;2023-08-21T11:18:37;100100.69;;;30.17;52.93
28306;BME280;7516;43.570;1.448;2023-08-21T11:21:06;100095.56;;;30.15;53.76
28306;BME280;7516;43.570;1.448;2023-08-21T11:23:35;100086.94;;;30.32;53.47
28306;BME280;7516;43.570;1.448;2023-08-21T11:26:03;100080.63;;;30.37;52.44
28306;BME280;7516;43.570;1.448;2023-08-21T11:28:31;100085.16;;;30.41;52.21
28306;BME280;7516;43.570;1.448;2023-08-21T11:30:59;100091.00;;;30.48;51.82
28306;BME280;7516;43.570;1.448;2023-08-21T11:33:27;100082.75;;;30.58;51.33
28306;BME280;7516;43.570;1.448;2023-08-21T11:35:57;100082.47;;;30.60;51.28
28306;BME280;7516;43.570;1.448;2023-08-21T11:38:26;100075.06;;;30.65;51.00
28306;BME280;7516;43.570;1.448;2023-08-21T11:40:56;100073.50;;;30.78;50.70
28306;BME280;7516;43.570;1.448;2023-08-21T11:43:35;100067.78;;;30.80;50.49
28306;BME280;7516;43.570;1.448;2023-08-21T11:46:03;100061.47;;;30.84;50.41
28306;BME280;7516;43.570;1.448;2023-08-21T11:48:31;100068.50;;;30.99;49.15
28306;BME280;7516;43.570;1.448;2023-08-21T11:51:01;100065.72;;;31.04;49.44
28306;BME280;7516;43.570;1.448;2023-08-21T11:53:36;100056.84;;;31.17;49.32
28306;BME280;7516;43.570;1.448;2023-08-21T11:56:09;100057.63;;;31.31;48.47
28306;BME280;7516;43.570;1.448;2023-08-21T11:58:38;100054.34;;;31.34;47.39
28306;BME280;7516;43.570;1.448;2023-08-21T12:01:06;100048.63;;;31.36;47.67
28306;BME280;7516;43.570;1.448;2023-08-21T12:03:39;100043.59;;;31.43;46.88
28306;BME280;7516;43.570;1.448;2023-08-21T12:06:09;100039.19;;;31.47;46.93
28306;BME280;7516;43.570;1.448;2023-08-21T12:08:37;100036.34;;;31.52;46.67
28306;BME280;7516;43.570;1.448;2023-08-21T12:11:05;100031.94;;;31.70;46.71
28306;BME280;7516;43.570;1.448;2023-08-21T12:13:33;100022.91;;;31.74;46.03
28306;BME280;7516;43.570;1.448;2023-08-21T12:16:01;100022.06;;;31.88;46.05
28306;BME280;7516;43.570;1.448;2023-08-21T12:18:28;100024.91;;;32.05;45.85
28306;BME280;7516;43.570;1.448;2023-08-21T12:20:56;100023.31;;;32.18;46.26
28306;BME280;7516;43.570;1.448;2023-08-21T12:23:25;100020.53;;;32.31;45.45
28306;BME280;7516;43.570;1.448;2023-08-21T12:25:52;100016.38;;;32.56;45.43
28306;BME280;7516;43.570;1.448;2023-08-21T12:28:20;100014.16;;;32.58;45.09
28306;BME280;7516;43.570;1.448;2023-08-21T12:30:47;100016.88;;;32.58;44.40
28306;BME280;7516;43.570;1.448;2023-08-21T12:33:14;100001.22;;;32.64;45.06
28306;BME280;7516;43.570;1.448;2023-08-21T12:35:42;100004.44;;;32.66;44.63
28306;BME280;7516;43.570;1.448;2023-08-21T12:38:11;99998.06;;;32.93;43.83
28306;BME280;7516;43.570;1.448;2023-08-21T12:40:41;100003.09;;;32.77;44.33
28306;BME280;7516;43.570;1.448;2023-08-21T12:43:08;99989.97;;;32.70;44.49
28306;BME280;7516;43.570;1.448;2023-08-21T12:45:36;99990.06;;;32.65;45.30
28306;BME280;7516;43.570;1.448;2023-08-21T12:48:05;99984.47;;;32.62;45.32
28306;BME280;7516;43.570;1.448;2023-08-21T12:50:32;99973.72;;;32.57;45.11
28306;BME280;7516;43.570;1.448;2023-08-21T12:53:00;99984.59;;;32.57;45.51
28306;BME280;7516;43.570;1.448;2023-08-21T12:55:28;99972.75;;;32.53;45.80
28306;BME280;7516;43.570;1.448;2023-08-21T12:57:57;99973.22;;;32.55;45.92
28306;BME280;7516;43.570;1.448;2023-08-21T13:00:25;99970.22;;;32.56;45.42
28306;BME280;7516;43.570;1.448;2023-08-21T13:02:53;99959.84;;;32.58;45.74
28306;BME280;7516;43.570;1.448;2023-08-21T13:05:20;99957.63;;;32.60;45.27
28306;BME280;7516;43.570;1.448;2023-08-21T13:07:48;99961.00;;;32.66;45.38